Juquia, Brazil
Current Conditions -  °F | °C
As of 1:00 AM on Wednesday 26 Nov 2014 (Local Time) from SBSP Reporting Station
Light Rain Light Rain  
Wind Chill: 70°   Ceiling: 900
Heat Index: 70°   Visibility: 6mi
Dew Point: 66°   Wind: 6mph
Humidity: 88%   Direction: 40°NE
Pressure: 29.91"   Gusts: NA
Location:  24.32°S, 47.63°W
Report Text: SBSP 260300Z 04005KT 280V060 9999 -RA BKN009 BKN020 21/19 Q1013 RETS
Loading
Personal Weather Stations






























Interactive Weather Map New forecast layout! Learn more

10-Day Weather Forecast

Advertisements
Track Severe Weather on mobile